createdAt,value
2023-07-18T00:00:34.157Z,19.86
2023-07-18T00:03:01.099Z,19.82
2023-07-18T00:05:27.878Z,19.88
2023-07-18T00:07:54.642Z,19.82
2023-07-18T00:10:21.328Z,19.84
2023-07-18T00:12:48.018Z,19.85
2023-07-18T00:15:14.937Z,19.84
2023-07-18T00:17:42.525Z,19.76
2023-07-18T00:20:18.537Z,19.81
2023-07-18T00:22:49.452Z,19.83
2023-07-18T00:25:20.196Z,19.77
2023-07-18T00:27:48.058Z,19.71
2023-07-18T00:30:14.932Z,19.69
2023-07-18T00:32:43.428Z,19.61
2023-07-18T00:35:12.495Z,19.67
2023-07-18T00:37:39.992Z,19.67
2023-07-18T00:40:15.936Z,19.58
2023-07-18T00:42:46.306Z,19.59
2023-07-18T00:45:13.319Z,19.63
2023-07-18T00:47:42.941Z,19.66
2023-07-18T00:50:12.499Z,19.71
2023-07-18T00:52:45.090Z,19.67
2023-07-18T00:55:13.062Z,19.57
2023-07-18T00:57:41.868Z,19.52
2023-07-18T01:00:10.681Z,19.53
2023-07-18T01:02:39.303Z,19.56
2023-07-18T01:05:07.900Z,19.57
2023-07-18T01:07:35.919Z,19.58
2023-07-18T01:10:15.451Z,19.58
2023-07-18T01:12:41.998Z,19.55
2023-07-18T01:15:09.538Z,19.48
2023-07-18T01:17:36.629Z,19.43
2023-07-18T01:20:05.823Z,19.31
2023-07-18T01:22:32.450Z,19.29
2023-07-18T01:24:58.963Z,19.29
2023-07-18T01:27:25.497Z,19.29
2023-07-18T01:29:52.679Z,19.21
2023-07-18T01:32:19.194Z,19.12
2023-07-18T01:34:45.773Z,19.04
2023-07-18T01:37:16.208Z,18.98
2023-07-18T01:39:44.597Z,19.04
2023-07-18T01:42:11.453Z,18.89
2023-07-18T01:44:38.031Z,18.92
2023-07-18T01:47:04.867Z,18.76
2023-07-18T01:49:32.285Z,18.74
2023-07-18T01:52:01.333Z,18.68
2023-07-18T01:54:28.522Z,18.50
2023-07-18T01:56:55.181Z,18.57
2023-07-18T01:59:23.114Z,18.50
2023-07-18T02:01:50.249Z,18.38
2023-07-18T02:04:16.925Z,18.45
2023-07-18T02:06:43.452Z,18.40
2023-07-18T02:09:11.026Z,18.31
2023-07-18T02:11:37.582Z,18.25
2023-07-18T02:14:05.171Z,18.24
2023-07-18T02:16:32.795Z,18.18
2023-07-18T02:19:01.987Z,18.16
2023-07-18T02:21:31.631Z,18.14
2023-07-18T02:23:58.159Z,18.22
2023-07-18T02:26:24.740Z,18.29
2023-07-18T02:28:52.313Z,18.33
2023-07-18T02:31:19.172Z,18.31
2023-07-18T02:33:46.161Z,18.21
2023-07-18T02:36:13.276Z,18.19
2023-07-18T02:38:39.999Z,18.15
2023-07-18T02:41:06.585Z,18.06
2023-07-18T02:43:33.096Z,17.99
2023-07-18T02:45:59.647Z,18.05
2023-07-18T02:48:26.393Z,18.05
2023-07-18T02:50:52.946Z,18.02
2023-07-18T02:53:19.591Z,17.95
2023-07-18T02:55:46.115Z,17.89
2023-07-18T02:58:12.651Z,17.81
2023-07-18T03:00:39.257Z,17.84
2023-07-18T03:03:05.970Z,17.77
2023-07-18T03:05:34.115Z,17.81
2023-07-18T03:08:00.763Z,17.73
2023-07-18T03:10:29.028Z,17.69
2023-07-18T03:12:55.657Z,17.58
2023-07-18T03:15:22.763Z,17.49
2023-07-18T03:17:49.505Z,17.57
2023-07-18T03:20:20.475Z,17.51
2023-07-18T03:22:49.121Z,17.52
2023-07-18T03:25:18.552Z,17.42
2023-07-18T03:27:45.506Z,17.40
2023-07-18T03:30:13.200Z,17.36
2023-07-18T03:32:40.924Z,17.28
2023-07-18T03:35:12.241Z,17.30
2023-07-18T03:37:38.948Z,17.27
2023-07-18T03:40:07.431Z,17.29
2023-07-18T03:42:35.063Z,17.21
2023-07-18T03:45:02.099Z,17.21
2023-07-18T03:47:29.386Z,17.18
2023-07-18T03:49:57.195Z,17.27
2023-07-18T03:52:24.020Z,17.18
2023-07-18T03:54:50.734Z,17.16
2023-07-18T03:57:17.334Z,17.18
2023-07-18T03:59:44.132Z,17.21
2023-07-18T04:02:11.283Z,17.18
2023-07-18T04:04:37.917Z,17.13
2023-07-18T04:07:04.754Z,17.07
2023-07-18T04:09:32.046Z,17.18
2023-07-18T04:11:58.618Z,17.18
2023-07-18T04:14:25.166Z,17.13
2023-07-18T04:16:52.472Z,17.12
2023-07-18T04:19:19.480Z,17.05
2023-07-18T04:21:46.277Z,17.02
2023-07-18T04:24:12.883Z,17.04
2023-07-18T04:26:39.407Z,17.14
2023-07-18T04:29:06.472Z,17.16
2023-07-18T04:31:33.499Z,17.20
2023-07-18T04:34:00.556Z,17.22
2023-07-18T04:36:27.100Z,17.26
2023-07-18T04:38:53.602Z,17.31
2023-07-18T04:41:20.273Z,17.36
2023-07-18T04:43:47.235Z,17.44
2023-07-18T04:46:13.780Z,17.49
2023-07-18T04:48:41.489Z,17.48
2023-07-18T04:51:08.178Z,17.50
2023-07-18T04:53:34.760Z,17.67
2023-07-18T04:56:01.436Z,17.75
2023-07-18T04:58:29.087Z,17.80
2023-07-18T05:00:56.549Z,17.85
2023-07-18T05:03:23.838Z,17.87
2023-07-18T05:05:50.446Z,17.87
2023-07-18T05:08:18.217Z,17.87
2023-07-18T05:10:45.860Z,17.97
2023-07-18T05:13:12.460Z,18.02
2023-07-18T05:15:39.123Z,18.10
2023-07-18T05:18:05.817Z,18.18
2023-07-18T05:20:32.520Z,18.22
2023-07-18T05:22:59.877Z,18.35
2023-07-18T05:25:26.662Z,18.39
2023-07-18T05:27:53.223Z,18.50
2023-07-18T05:30:20.790Z,18.56
2023-07-18T05:32:47.963Z,18.62
2023-07-18T05:35:15.386Z,18.67
2023-07-18T05:37:43.187Z,18.78
2023-07-18T05:40:11.137Z,18.84
2023-07-18T05:42:39.228Z,18.92
2023-07-18T05:45:08.986Z,19.00
2023-07-18T05:47:39.747Z,19.08
2023-07-18T05:50:07.609Z,19.19
2023-07-18T05:52:35.247Z,19.30
2023-07-18T05:55:02.532Z,19.38
2023-07-18T05:57:29.235Z,19.47
2023-07-18T05:59:55.885Z,19.57
2023-07-18T06:02:23.090Z,19.66
2023-07-18T06:04:49.746Z,19.74
2023-07-18T06:07:16.897Z,19.74
2023-07-18T06:09:43.853Z,19.94
2023-07-18T06:12:10.608Z,19.96
2023-07-18T06:14:37.180Z,20.06
2023-07-18T06:17:04.463Z,20.12
2023-07-18T06:19:31.137Z,20.24
2023-07-18T06:21:58.201Z,20.24
2023-07-18T06:24:25.588Z,20.33
2023-07-18T06:26:52.600Z,20.42
2023-07-18T06:29:20.660Z,20.66
2023-07-18T06:31:48.659Z,20.69
2023-07-18T06:34:18.455Z,20.77
2023-07-18T06:36:46.795Z,20.82
2023-07-18T06:39:14.869Z,20.84
2023-07-18T06:41:41.671Z,21.11
2023-07-18T06:44:10.347Z,21.18
2023-07-18T06:46:37.399Z,21.25
2023-07-18T06:49:04.786Z,21.28
2023-07-18T06:51:31.363Z,21.28
2023-07-18T06:53:57.976Z,21.31
2023-07-18T06:56:24.659Z,21.59
2023-07-18T06:58:51.187Z,21.51
2023-07-18T07:01:18.278Z,21.62
2023-07-18T07:03:45.269Z,21.80
2023-07-18T07:06:13.237Z,21.69
2023-07-18T07:08:39.820Z,21.67
2023-07-18T07:11:08.715Z,21.71
2023-07-18T07:13:36.761Z,21.79
2023-07-18T07:16:04.602Z,21.74
2023-07-18T07:18:31.635Z,21.82
2023-07-18T07:20:58.630Z,21.87
2023-07-18T07:23:25.327Z,21.93
2023-07-18T07:25:52.343Z,21.92
2023-07-18T07:28:20.497Z,22.04
2023-07-18T07:30:47.245Z,22.07
2023-07-18T07:33:14.095Z,22.22
2023-07-18T07:35:40.720Z,22.39
2023-07-18T07:38:08.078Z,22.81
2023-07-18T07:40:34.919Z,23.63
2023-07-18T07:43:01.543Z,23.78
2023-07-18T07:45:28.065Z,23.51
2023-07-18T07:47:54.765Z,23.12
2023-07-18T07:50:21.478Z,23.03
2023-07-18T07:52:48.222Z,22.83
2023-07-18T07:55:14.985Z,22.81
2023-07-18T07:57:42.850Z,22.58
2023-07-18T08:00:09.983Z,22.77
2023-07-18T08:02:37.392Z,22.97
2023-07-18T08:05:04.502Z,22.93
2023-07-18T08:07:31.258Z,22.66
2023-07-18T08:09:58.696Z,22.80
2023-07-18T08:12:25.361Z,22.79
2023-07-18T08:14:51.911Z,22.88
2023-07-18T08:17:19.064Z,22.55
2023-07-18T08:19:46.104Z,23.13
2023-07-18T08:22:12.681Z,23.41
2023-07-18T08:24:39.360Z,23.99
2023-07-18T08:27:06.571Z,23.65
2023-07-18T08:29:34.600Z,24.20
2023-07-18T08:32:01.692Z,24.87
2023-07-18T08:34:28.504Z,25.34
2023-07-18T08:36:55.012Z,25.27
2023-07-18T08:39:21.670Z,25.22
2023-07-18T08:41:52.690Z,24.81
2023-07-18T08:44:21.592Z,24.29
2023-07-18T08:46:48.634Z,24.47
2023-07-18T08:49:18.426Z,24.42
2023-07-18T08:51:45.605Z,24.32
2023-07-18T08:54:13.857Z,24.28
2023-07-18T08:56:42.447Z,23.89
2023-07-18T08:59:09.000Z,24.24
2023-07-18T09:01:36.276Z,24.39
2023-07-18T09:04:03.187Z,24.47
2023-07-18T09:06:29.911Z,24.05
2023-07-18T09:08:56.586Z,24.42
2023-07-18T09:11:23.534Z,24.43
2023-07-18T09:13:50.438Z,24.37
2023-07-18T09:16:19.955Z,24.42
2023-07-18T09:18:55.093Z,24.26
2023-07-18T09:21:24.033Z,24.30
2023-07-18T09:23:51.702Z,24.08
2023-07-18T09:26:22.726Z,24.39
2023-07-18T09:28:49.787Z,24.30
2023-07-18T09:31:24.829Z,24.55
2023-07-18T09:33:53.718Z,24.52
2023-07-18T09:36:28.168Z,24.59
2023-07-18T09:38:54.696Z,24.66
2023-07-18T09:41:22.910Z,24.65
2023-07-18T09:43:57.969Z,24.63
2023-07-18T09:46:40.941Z,24.63
2023-07-18T09:49:14.341Z,24.78
2023-07-18T09:51:51.486Z,24.54
2023-07-18T09:54:20.149Z,25.09
2023-07-18T09:56:49.193Z,24.77
2023-07-18T09:59:16.758Z,25.08
2023-07-18T10:01:44.006Z,24.99
2023-07-18T10:04:10.943Z,24.93
2023-07-18T10:06:37.758Z,25.11
2023-07-18T10:09:04.690Z,25.05
2023-07-18T10:11:31.271Z,24.82
2023-07-18T10:14:06.888Z,25.23
2023-07-18T10:16:36.575Z,25.11
2023-07-18T10:19:19.848Z,25.38
2023-07-18T10:21:47.850Z,25.59
2023-07-18T10:24:21.190Z,25.64
2023-07-18T10:26:49.611Z,25.55
2023-07-18T10:29:16.217Z,25.59
2023-07-18T10:31:42.938Z,25.52
2023-07-18T10:34:11.701Z,26.09
2023-07-18T10:36:39.602Z,26.16
2023-07-18T10:39:12.250Z,26.25
2023-07-18T10:41:43.077Z,26.40
2023-07-18T10:44:15.279Z,26.40
2023-07-18T10:46:42.378Z,26.58
2023-07-18T10:49:08.942Z,26.74
2023-07-18T10:51:35.963Z,27.09
2023-07-18T10:54:03.446Z,26.87
2023-07-18T10:56:30.003Z,27.16
2023-07-18T10:58:56.963Z,27.35
2023-07-18T11:01:28.217Z,27.48
2023-07-18T11:03:57.099Z,27.32
2023-07-18T11:06:24.145Z,27.16
2023-07-18T11:08:50.808Z,27.63
2023-07-18T11:11:19.621Z,27.72
2023-07-18T11:13:46.604Z,27.77
2023-07-18T11:16:16.533Z,28.00
2023-07-18T11:18:49.702Z,28.18
2023-07-18T11:21:18.552Z,28.06
2023-07-18T11:23:45.940Z,28.28
2023-07-18T11:26:17.829Z,27.99
2023-07-18T11:28:54.989Z,28.43
2023-07-18T11:33:58.663Z,27.99
2023-07-18T11:36:38.856Z,27.70
2023-07-18T11:39:23.208Z,27.60
2023-07-18T11:41:52.595Z,27.53
2023-07-18T11:44:27.708Z,27.45
2023-07-18T11:46:55.731Z,27.24
2023-07-18T11:49:36.748Z,27.24
2023-07-18T11:52:05.878Z,27.13
2023-07-18T11:54:36.834Z,26.97
2023-07-18T11:57:05.230Z,26.66
2023-07-18T11:59:32.389Z,26.88
2023-07-18T12:01:58.956Z,26.90
2023-07-18T12:04:25.561Z,26.85
2023-07-18T12:06:55.400Z,26.86
2023-07-18T12:09:22.490Z,26.64
2023-07-18T12:11:48.997Z,26.64
2023-07-18T12:14:15.801Z,26.84
2023-07-18T12:16:42.419Z,26.78
2023-07-18T12:19:09.443Z,26.58
2023-07-18T12:21:36.235Z,26.66
2023-07-18T12:24:05.291Z,26.52
2023-07-18T12:26:31.895Z,26.31
2023-07-18T12:28:58.661Z,26.20
2023-07-18T12:31:25.599Z,25.86
2023-07-18T12:33:53.125Z,26.11
2023-07-18T12:36:20.609Z,25.85
2023-07-18T12:38:47.885Z,26.01
2023-07-18T12:41:14.467Z,26.05
2023-07-18T12:43:40.999Z,25.83
2023-07-18T12:46:09.893Z,25.84
2023-07-18T12:48:36.504Z,25.73
2023-07-18T12:51:04.235Z,25.36
2023-07-18T12:53:30.814Z,25.44
2023-07-18T12:55:57.375Z,25.31
2023-07-18T12:58:23.938Z,24.94
2023-07-18T13:00:50.518Z,24.82
2023-07-18T13:03:18.294Z,24.64
2023-07-18T13:05:44.970Z,24.54
2023-07-18T13:08:12.318Z,24.49
2023-07-18T13:10:39.003Z,24.39
2023-07-18T13:13:07.383Z,24.09
2023-07-18T13:15:34.030Z,23.93
2023-07-18T13:18:00.678Z,23.90
2023-07-18T13:20:27.780Z,23.88
2023-07-18T13:22:54.442Z,23.87
2023-07-18T13:25:21.276Z,23.76
2023-07-18T13:27:47.819Z,23.76
2023-07-18T13:30:14.732Z,23.89
2023-07-18T13:32:43.034Z,23.97
2023-07-18T13:35:09.724Z,24.18
2023-07-18T13:37:36.277Z,24.19
2023-07-18T13:40:02.891Z,24.35
2023-07-18T13:42:29.393Z,24.28
2023-07-18T13:44:55.977Z,24.34
2023-07-18T13:47:31.089Z,24.59
2023-07-18T13:49:57.849Z,24.60
2023-07-18T13:52:24.355Z,24.64
2023-07-18T13:54:50.980Z,24.75
2023-07-18T13:57:17.579Z,24.66
2023-07-18T13:59:44.502Z,24.62
2023-07-18T14:02:11.494Z,24.80
2023-07-18T14:04:38.209Z,24.87
2023-07-18T14:07:04.738Z,24.85
2023-07-18T14:09:31.311Z,24.81
2023-07-18T14:11:57.890Z,24.84
2023-07-18T14:14:24.518Z,24.89
2023-07-18T14:16:51.799Z,24.86
2023-07-18T14:19:18.569Z,24.75
2023-07-18T14:21:45.987Z,24.89
2023-07-18T14:24:12.641Z,24.91
2023-07-18T14:26:39.143Z,24.84
2023-07-18T14:29:05.653Z,24.88
2023-07-18T14:31:33.520Z,24.89
2023-07-18T14:34:06.113Z,24.94
2023-07-18T14:36:33.809Z,24.92
2023-07-18T14:39:00.415Z,24.97
2023-07-18T14:41:26.970Z,25.19
2023-07-18T14:43:53.533Z,25.18
2023-07-18T14:46:20.335Z,25.26
2023-07-18T14:48:47.196Z,25.33
2023-07-18T14:51:14.370Z,25.31
2023-07-18T14:53:41.031Z,25.38
2023-07-18T14:56:07.991Z,25.40
2023-07-18T14:58:34.551Z,25.44
2023-07-18T15:01:01.268Z,25.59
2023-07-18T15:03:27.991Z,25.65
2023-07-18T15:05:54.597Z,25.69
2023-07-18T15:08:21.535Z,25.65
2023-07-18T15:10:48.015Z,25.53
2023-07-18T15:13:14.591Z,25.55
2023-07-18T15:15:42.802Z,25.63
2023-07-18T15:18:10.369Z,25.58
2023-07-18T15:20:37.001Z,25.55
2023-07-18T15:23:03.602Z,25.53
2023-07-18T15:25:32.143Z,25.59
2023-07-18T15:28:00.664Z,25.64
2023-07-18T15:30:27.892Z,25.66
2023-07-18T15:32:54.472Z,25.66
2023-07-18T15:35:21.323Z,25.56
2023-07-18T15:37:47.829Z,25.77
2023-07-18T15:40:14.422Z,25.81
2023-07-18T15:42:41.464Z,25.68
2023-07-18T15:45:08.555Z,25.66
2023-07-18T15:47:35.110Z,25.78
2023-07-18T15:50:01.615Z,25.67
2023-07-18T15:52:28.849Z,25.63
2023-07-18T15:54:55.341Z,25.56
2023-07-18T15:57:23.172Z,25.56
2023-07-18T15:59:50.176Z,25.51
2023-07-18T16:02:16.811Z,25.49
2023-07-18T16:04:43.419Z,25.54
2023-07-18T16:07:10.002Z,25.52
2023-07-18T16:09:53.336Z,25.72
2023-07-18T16:12:20.595Z,25.82
2023-07-18T16:14:47.804Z,25.87
2023-07-18T16:17:14.825Z,25.90
2023-07-18T16:19:45.755Z,26.00
2023-07-18T16:22:12.383Z,26.10
2023-07-18T16:24:40.678Z,26.06
2023-07-18T16:27:07.373Z,26.06
2023-07-18T16:29:34.211Z,26.08
2023-07-18T16:32:00.802Z,26.04
2023-07-18T16:34:27.843Z,26.09
2023-07-18T16:36:56.379Z,26.11
2023-07-18T16:39:22.924Z,26.24
2023-07-18T16:41:49.456Z,26.20
2023-07-18T16:46:43.273Z,26.39
2023-07-18T16:49:09.832Z,26.33
2023-07-18T16:56:01.282Z,26.09
2023-07-18T16:58:28.464Z,26.25
2023-07-18T17:00:55.107Z,26.16
2023-07-18T17:03:22.039Z,26.24
2023-07-18T17:05:49.257Z,26.36
2023-07-18T17:08:15.942Z,26.26
2023-07-18T17:10:42.663Z,26.29
2023-07-18T17:13:09.439Z,26.36
2023-07-18T17:15:38.146Z,26.27
2023-07-18T17:18:06.250Z,26.18
2023-07-18T17:20:32.876Z,26.24
2023-07-18T17:23:00.606Z,26.15
2023-07-18T17:25:28.441Z,26.02
2023-07-18T17:27:55.091Z,25.95
2023-07-18T17:30:22.332Z,25.89
2023-07-18T17:32:48.904Z,25.80
2023-07-18T17:35:16.341Z,25.83
2023-07-18T17:37:44.058Z,25.71
2023-07-18T17:40:14.383Z,25.59
2023-07-18T17:42:43.149Z,25.56
2023-07-18T17:45:10.878Z,25.43
2023-07-18T17:47:38.380Z,25.52
2023-07-18T17:50:06.191Z,25.45
2023-07-18T17:52:33.406Z,25.42
2023-07-18T17:55:00.404Z,25.33
2023-07-18T17:57:30.171Z,25.20
2023-07-18T17:59:58.819Z,25.10
2023-07-18T18:02:25.705Z,25.30
2023-07-18T18:04:57.988Z,25.37
2023-07-18T18:07:24.911Z,25.19
2023-07-18T18:09:51.412Z,25.11
2023-07-18T18:12:17.929Z,25.09
2023-07-18T18:14:44.900Z,25.08
2023-07-18T18:17:11.559Z,25.02
2023-07-18T18:19:38.140Z,25.01
2023-07-18T18:22:05.070Z,24.95
2023-07-18T18:24:31.587Z,24.94
2023-07-18T18:26:58.142Z,24.87
2023-07-18T18:29:26.838Z,24.85
2023-07-18T18:31:54.077Z,24.76
2023-07-18T18:34:20.692Z,24.83
2023-07-18T18:36:47.268Z,24.70
2023-07-18T18:39:13.939Z,24.74
2023-07-18T18:41:40.438Z,24.70
2023-07-18T18:44:06.981Z,24.62
2023-07-18T18:46:34.019Z,24.66
2023-07-18T18:49:03.675Z,24.68
2023-07-18T18:51:31.098Z,24.56
2023-07-18T18:53:57.634Z,24.55
2023-07-18T18:56:24.596Z,24.41
2023-07-18T18:58:51.110Z,24.49
2023-07-18T19:01:17.802Z,24.45
2023-07-18T19:03:44.566Z,24.43
2023-07-18T19:06:11.156Z,24.40
2023-07-18T19:08:37.669Z,24.30
2023-07-18T19:11:08.086Z,24.28
2023-07-18T19:13:35.232Z,24.25
2023-07-18T19:16:01.939Z,24.23
2023-07-18T19:18:28.567Z,24.13
2023-07-18T19:20:55.151Z,24.12
2023-07-18T19:23:21.690Z,23.97
2023-07-18T19:25:48.226Z,23.90
2023-07-18T19:28:14.725Z,23.72
2023-07-18T19:30:41.348Z,23.65
2023-07-18T19:33:08.153Z,23.59
2023-07-18T19:35:34.963Z,23.47
2023-07-18T19:38:03.262Z,23.37
2023-07-18T19:40:31.312Z,23.31
2023-07-18T19:42:58.093Z,23.30
2023-07-18T19:45:24.664Z,23.31
2023-07-18T19:47:51.227Z,23.28
2023-07-18T19:50:17.893Z,23.23
2023-07-18T19:52:44.497Z,23.26
2023-07-18T19:55:11.341Z,23.25
2023-07-18T19:57:37.935Z,23.21
2023-07-18T20:00:07.090Z,23.23
2023-07-18T20:02:33.777Z,23.24
2023-07-18T20:05:00.419Z,23.24
2023-07-18T20:07:26.960Z,23.22
2023-07-18T20:09:55.799Z,23.19
2023-07-18T20:12:22.902Z,23.16
2023-07-18T20:14:49.459Z,23.15
2023-07-18T20:17:16.081Z,23.13
2023-07-18T20:19:44.442Z,23.11
2023-07-18T20:22:11.075Z,23.05
2023-07-18T20:24:37.616Z,23.05
2023-07-18T20:27:04.655Z,23.05
2023-07-18T20:29:32.082Z,23.01
2023-07-18T20:31:58.716Z,22.99
2023-07-18T20:34:25.257Z,22.91
2023-07-18T20:36:51.837Z,22.94
2023-07-18T20:39:18.432Z,22.93
2023-07-18T20:41:45.041Z,22.99
2023-07-18T20:44:13.091Z,23.02
2023-07-18T20:46:39.712Z,22.99
2023-07-18T20:49:07.566Z,22.91
2023-07-18T20:51:34.085Z,22.93
2023-07-18T20:54:00.725Z,22.93
2023-07-18T20:56:27.262Z,23.02
2023-07-18T20:58:53.784Z,22.85
2023-07-18T21:01:22.274Z,22.53
2023-07-18T21:03:49.225Z,22.14
2023-07-18T21:06:15.787Z,21.68
2023-07-18T21:08:42.739Z,21.43
2023-07-18T21:11:09.297Z,21.18
2023-07-18T21:13:35.827Z,20.95
2023-07-18T21:16:02.412Z,20.92
2023-07-18T21:18:29.036Z,20.85
2023-07-18T21:20:56.568Z,20.85
2023-07-18T21:23:23.241Z,20.73
2023-07-18T21:25:49.920Z,20.72
2023-07-18T21:28:16.681Z,20.66
2023-07-18T21:30:43.286Z,20.68
2023-07-18T21:33:09.941Z,20.68
2023-07-18T21:35:36.568Z,20.71
2023-07-18T21:38:03.178Z,20.65
2023-07-18T21:40:29.723Z,20.64
2023-07-18T21:42:56.306Z,20.69
2023-07-18T21:45:22.917Z,20.51
2023-07-18T21:47:49.536Z,20.38
2023-07-18T21:50:16.153Z,20.33
2023-07-18T21:52:44.316Z,20.36
2023-07-18T21:55:10.855Z,20.37
2023-07-18T21:57:37.440Z,20.34
2023-07-18T22:00:06.182Z,20.34
2023-07-18T22:02:39.193Z,20.35
2023-07-18T22:05:05.946Z,20.25
2023-07-18T22:07:32.957Z,20.14
2023-07-18T22:10:01.196Z,20.12
2023-07-18T22:12:27.820Z,20.06
2023-07-18T22:14:54.703Z,20.02
2023-07-18T22:17:21.296Z,20.07
2023-07-18T22:19:48.219Z,20.16
2023-07-18T22:22:15.848Z,20.08
2023-07-18T22:24:42.559Z,19.98
2023-07-18T22:27:09.322Z,19.93
2023-07-18T22:29:36.046Z,19.98
2023-07-18T22:32:02.621Z,19.93
2023-07-18T22:34:29.316Z,19.93
2023-07-18T22:36:56.265Z,20.04
2023-07-18T22:39:34.495Z,20.06
2023-07-18T22:42:14.127Z,20.08
2023-07-18T22:44:41.937Z,20.03
2023-07-18T22:47:08.748Z,20.01
2023-07-18T22:49:35.623Z,20.02
2023-07-18T22:52:02.172Z,19.89
2023-07-18T22:54:29.389Z,19.96
2023-07-18T22:56:56.088Z,19.94
2023-07-18T22:59:22.707Z,19.90
2023-07-18T23:01:50.197Z,19.79
2023-07-18T23:04:17.353Z,19.89
2023-07-18T23:06:45.996Z,19.86
2023-07-18T23:09:12.660Z,19.89
2023-07-18T23:11:39.456Z,19.87
2023-07-18T23:14:06.278Z,19.85
2023-07-18T23:16:32.889Z,19.84
2023-07-18T23:18:59.476Z,19.82
2023-07-18T23:21:26.056Z,19.80
2023-07-18T23:23:52.603Z,19.77
2023-07-18T23:26:19.678Z,19.72
2023-07-18T23:28:46.654Z,19.69
2023-07-18T23:31:14.114Z,19.57
2023-07-18T23:33:40.886Z,19.65
2023-07-18T23:36:07.448Z,19.68
2023-07-18T23:38:34.155Z,19.61
2023-07-18T23:41:00.767Z,19.52
2023-07-18T23:43:31.400Z,19.49
2023-07-18T23:45:58.552Z,19.42
2023-07-18T23:48:25.412Z,19.46
2023-07-18T23:50:52.192Z,19.46
2023-07-18T23:53:19.119Z,19.51
2023-07-18T23:55:46.442Z,19.52
2023-07-18T23:58:13.138Z,19.44
